Time;durP1;ratioP1;P1;durP2;ratioP2;P2;SDS_P1;SDS_P2;PMS_P1;PMS_P2;Temp;Humidity;BMP_temperature;BMP_pressure;BME280_temperature;BME280_humidity;BME280_pressure;Samples;Min_cycle;Max_cycle;Signal;HPM_P1;HPM_P2
2023/10/03 00:01:38;;;;;;;20.30;9.30;;;;;;;22.08;69.89;101227.16;5051441;27;96973;-71
2023/10/03 00:04:07;;;;;;;19.42;8.73;;;;;;;22.00;69.71;101229.56;5052445;27;96989;-72
2023/10/03 00:06:34;;;;;;;16.77;8.73;;;;;;;22.14;69.42;101215.94;5052521;27;99152;-71
2023/10/03 00:09:01;;;;;;;17.80;8.25;;;;;;;22.15;69.07;101210.44;5052065;27;101651;-71
2023/10/03 00:11:28;;;;;;;20.17;8.95;;;;;;;22.20;69.13;101210.94;5047366;27;96856;-71
2023/10/03 00:13:54;;;;;;;25.17;9.65;;;;;;;22.26;68.41;101213.16;5048623;27;97065;-71
2023/10/03 00:16:21;;;;;;;19.50;9.27;;;;;;;22.00;69.70;101202.66;5044159;27;99307;-71
2023/10/03 00:18:47;;;;;;;23.33;8.90;;;;;;;22.06;69.58;101194.97;5052818;27;98811;-71
2023/10/03 00:21:16;;;;;;;20.92;9.90;;;;;;;22.09;69.14;101192.06;5053574;27;98523;-71
2023/10/03 00:23:43;;;;;;;22.63;8.95;;;;;;;22.17;68.96;101186.09;5050839;27;98546;-72
2023/10/03 00:26:15;;;;;;;17.20;9.45;;;;;;;22.39;68.15;101188.84;5050315;27;98527;-72
2023/10/03 00:28:41;;;;;;;19.80;9.57;;;;;;;22.21;68.83;101182.19;5046439;27;99199;-72
2023/10/03 00:31:09;;;;;;;22.00;8.82;;;;;;;22.14;69.01;101178.25;5048584;27;97679;-72
2023/10/03 00:33:36;;;;;;;17.23;9.27;;;;;;;22.06;69.33;101177.97;5051013;27;97858;-71
2023/10/03 00:36:03;;;;;;;19.88;8.73;;;;;;;21.84;70.32;101168.84;5049291;27;99131;-71
2023/10/03 00:38:31;;;;;;;18.30;8.88;;;;;;;21.81;70.04;101163.69;5052124;27;98851;-71
2023/10/03 00:40:58;;;;;;;16.83;8.82;;;;;;;22.05;69.42;101154.75;5049807;27;97695;-71
2023/10/03 00:43:24;;;;;;;21.65;9.25;;;;;;;22.09;68.81;101150.84;5052538;27;97130;-71
2023/10/03 00:45:51;;;;;;;22.77;8.68;;;;;;;21.87;68.84;101160.50;5051503;27;98960;-71
2023/10/03 00:48:18;;;;;;;15.90;8.30;;;;;;;22.03;68.51;101159.38;5048481;27;98150;-70
2023/10/03 00:50:46;;;;;;;16.85;8.00;;;;;;;22.04;67.73;101144.97;5053129;27;96812;-71
2023/10/03 00:53:13;;;;;;;16.23;7.82;;;;;;;21.93;67.57;101148.44;5051386;27;96915;-71
2023/10/03 00:55:43;;;;;;;18.48;7.35;;;;;;;21.84;68.16;101151.84;5051391;27;98932;-70
2023/10/03 00:58:17;;;;;;;18.75;8.63;;;;;;;22.11;67.06;101151.59;5050248;27;100138;-71
2023/10/03 01:00:46;;;;;;;14.93;7.50;;;;;;;22.13;66.82;101138.84;5052615;27;96905;-71
2023/10/03 01:03:27;;;;;;;19.85;8.32;;;;;;;22.08;66.75;101141.91;5048194;27;96924;-72
2023/10/03 01:05:53;;;;;;;15.90;7.72;;;;;;;22.09;66.38;101142.78;5050671;27;99224;-70
2023/10/03 01:08:21;;;;;;;14.48;8.07;;;;;;;22.17;65.75;101140.34;5051148;27;98276;-70
2023/10/03 01:10:48;;;;;;;21.17;7.13;;;;;;;22.00;65.96;101133.56;5051093;27;97449;-70
2023/10/03 01:13:15;;;;;;;15.50;7.22;;;;;;;22.20;64.50;101124.81;5048626;27;96887;-70
2023/10/03 01:15:43;;;;;;;17.13;7.55;;;;;;;22.22;63.62;101122.00;5048424;27;99067;-69
2023/10/03 01:18:13;;;;;;;17.77;8.00;;;;;;;22.15;63.50;101118.94;5048564;27;99684;-69
2023/10/03 01:20:41;;;;;;;17.20;7.47;;;;;;;22.36;62.75;101118.22;5046907;27;97636;-70
2023/10/03 01:23:10;;;;;;;24.77;7.57;;;;;;;22.29;63.15;101112.47;5047215;27;97551;-71
2023/10/03 01:25:42;;;;;;;14.90;7.22;;;;;;;22.08;63.59;101108.75;5052153;27;99168;-69
2023/10/03 01:28:08;;;;;;;19.17;7.57;;;;;;;22.16;64.25;101111.72;5048960;27;98849;-70
2023/10/03 01:30:36;;;;;;;16.02;7.95;;;;;;;22.31;64.44;101110.53;5052106;27;97678;-70
2023/10/03 01:33:03;;;;;;;15.93;7.30;;;;;;;22.08;64.64;101109.63;5047181;27;97029;-69
2023/10/03 01:35:30;;;;;;;16.60;7.43;;;;;;;21.88;65.31;101108.44;5053104;27;98457;-70
2023/10/03 01:37:56;;;;;;;15.35;7.60;;;;;;;21.84;65.75;101111.50;5047904;27;98971;-70
2023/10/03 01:40:24;;;;;;;13.88;7.38;;;;;;;21.80;66.22;101104.59;5045438;27;96907;-70
2023/10/03 01:42:50;;;;;;;14.52;7.53;;;;;;;22.02;65.58;101101.16;5049640;27;96858;-70
2023/10/03 01:45:18;;;;;;;16.67;7.80;;;;;;;22.09;65.07;101100.56;5051268;27;99620;-70
2023/10/03 01:47:47;;;;;;;18.20;8.52;;;;;;;21.82;65.49;101098.16;5049854;27;99181;-68
2023/10/03 01:50:15;;;;;;;15.68;7.80;;;;;;;21.98;65.37;101092.47;5052080;27;97714;-70
2023/10/03 01:52:41;;;;;;;15.35;7.22;;;;;;;21.93;64.90;101081.16;5051794;27;96902;-69
2023/10/03 01:55:09;;;;;;;16.50;7.65;;;;;;;21.80;65.14;101073.19;5050154;27;102072;-70
2023/10/03 01:57:37;;;;;;;16.15;7.43;;;;;;;21.79;64.38;101073.34;5049665;27;98679;-70
2023/10/03 02:00:11;;;;;;;19.95;8.40;;;;;;;21.84;64.77;101063.06;5048960;27;96959;-69
2023/10/03 02:02:38;;;;;;;17.95;8.32;;;;;;;21.73;64.09;101061.19;5049501;27;96868;-70
2023/10/03 02:05:07;;;;;;;21.08;8.13;;;;;;;21.68;63.65;101065.22;5050430;27;99736;-70
2023/10/03 02:07:34;;;;;;;15.65;7.95;;;;;;;21.59;63.41;101052.50;5048731;27;98941;-70
2023/10/03 02:10:01;;;;;;;18.02;7.97;;;;;;;21.63;63.96;101051.25;5051804;27;98565;-69
2023/10/03 02:12:29;;;;;;;21.45;8.23;;;;;;;21.82;62.72;101049.72;5050306;27;97108;-70
2023/10/03 02:14:57;;;;;;;19.33;8.18;;;;;;;21.72;63.17;101042.50;5044254;27;99348;-71
2023/10/03 02:17:23;;;;;;;21.75;8.98;;;;;;;21.77;63.06;101048.38;5050667;27;99295;-70
2023/10/03 02:19:49;;;;;;;16.60;8.00;;;;;;;21.37;63.89;101039.81;5050175;27;97222;-70
2023/10/03 02:22:19;;;;;;;20.85;8.38;;;;;;;21.57;63.51;101033.78;5051651;27;96762;-70
2023/10/03 02:24:45;;;;;;;17.58;8.50;;;;;;;21.60;63.09;101029.97;5050264;27;99372;-71
2023/10/03 02:27:14;;;;;;;20.73;8.23;;;;;;;21.39;63.20;101025.28;5050201;27;98707;-70
2023/10/03 02:29:41;;;;;;;20.20;7.93;;;;;;;21.48;62.55;101016.50;5051141;27;96757;-71
2023/10/03 02:32:09;;;;;;;19.05;7.90;;;;;;;21.31;62.74;101008.03;5048375;27;97484;-70
2023/10/03 02:34:36;;;;;;;16.88;7.95;;;;;;;21.45;62.98;101007.84;5049018;27;99282;-70
2023/10/03 02:37:04;;;;;;;17.45;7.95;;;;;;;21.37;63.04;101002.19;5049545;27;99067;-71
2023/10/03 02:39:36;;;;;;;18.33;8.55;;;;;;;21.38;62.78;100996.69;5047916;27;97677;-71
2023/10/03 02:42:05;;;;;;;20.25;8.18;;;;;;;21.12;63.55;100983.50;5051474;27;96772;-70
2023/10/03 02:44:32;;;;;;;18.38;7.88;;;;;;;21.04;64.09;100978.69;5048735;27;98826;-71
2023/10/03 02:46:59;;;;;;;17.35;7.93;;;;;;;21.17;63.59;100975.97;5047389;27;98669;-70
2023/10/03 02:49:26;;;;;;;19.75;8.75;;;;;;;21.04;63.93;100967.94;5051512;27;96907;-71
2023/10/03 02:51:53;;;;;;;19.10;8.45;;;;;;;20.93;64.09;100966.09;5055332;27;96834;-70
2023/10/03 02:54:19;;;;;;;19.15;8.63;;;;;;;21.07;64.32;100962.31;5052094;27;97790;-71
2023/10/03 02:56:47;;;;;;;19.55;8.68;;;;;;;20.92;64.65;100955.44;5054464;27;99133;-70
2023/10/03 02:59:13;;;;;;;20.80;9.30;;;;;;;20.81;64.33;100945.47;5049782;27;96793;-70
2023/10/03 03:01:40;;;;;;;21.88;8.63;;;;;;;21.03;63.86;100942.06;5049914;27;96863;-72
2023/10/03 03:04:07;;;;;;;22.10;9.40;;;;;;;20.89;64.36;100940.41;5053095;27;99002;-71
2023/10/03 03:06:36;;;;;;;22.27;8.63;;;;;;;21.01;64.11;100936.78;5049495;27;97673;-71
2023/10/03 03:09:03;;;;;;;20.83;9.38;;;;;;;21.13;63.46;100934.16;5050480;27;96822;-71
2023/10/03 03:11:32;;;;;;;20.20;8.70;;;;;;;20.98;63.99;100925.44;5054492;27;97052;-70
2023/10/03 03:13:58;;;;;;;20.77;8.98;;;;;;;20.81;64.52;100928.50;5052881;27;97966;-71
2023/10/03 03:16:25;;;;;;;24.10;9.55;;;;;;;20.86;64.34;100927.22;5053259;27;100188;-72
2023/10/03 03:18:53;;;;;;;18.52;8.57;;;;;;;20.87;64.18;100920.84;5049236;27;96840;-72
2023/10/03 03:21:20;;;;;;;19.40;9.50;;;;;;;20.89;64.19;100910.84;5054568;27;96930;-69
2023/10/03 03:23:56;;;;;;;21.95;9.38;;;;;;;20.71;64.48;100898.81;5051491;27;98925;-70
2023/10/03 03:26:29;;;;;;;19.20;8.93;;;;;;;20.72;64.42;100897.84;5050044;27;101368;-70
2023/10/03 03:28:55;;;;;;;21.10;9.88;;;;;;;20.87;64.05;100894.00;5047629;27;99249;-70
2023/10/03 03:31:22;;;;;;;20.13;9.10;;;;;;;20.67;64.27;100887.47;5050228;27;97228;-72
2023/10/03 03:33:50;;;;;;;23.25;9.68;;;;;;;20.91;63.76;100884.75;5048920;27;101630;-71
2023/10/03 03:36:19;;;;;;;20.00;9.73;;;;;;;20.93;63.56;100881.94;5052669;27;98998;-71
2023/10/03 03:38:49;;;;;;;25.40;9.57;;;;;;;20.84;63.37;100871.91;5053400;27;96891;-71
2023/10/03 03:41:16;;;;;;;19.98;9.02;;;;;;;20.82;63.40;100873.84;5052324;27;97817;-73
2023/10/03 03:43:43;;;;;;;22.38;9.20;;;;;;;20.91;63.68;100865.09;5053533;27;97746;-73
2023/10/03 03:46:10;;;;;;;25.98;9.93;;;;;;;20.74;63.61;100860.16;5053118;27;98505;-72
2023/10/03 03:48:38;;;;;;;24.30;10.75;;;;;;;20.74;63.73;100854.78;5053382;27;98424;-72
2023/10/03 03:51:06;;;;;;;26.23;10.15;;;;;;;20.96;63.02;100853.00;5051477;27;100250;-72
2023/10/03 03:53:33;;;;;;;25.35;10.05;;;;;;;20.83;63.56;100854.91;5052553;27;98448;-72
2023/10/03 03:56:04;;;;;;;22.27;9.68;;;;;;;20.93;63.18;100857.78;5048556;27;99031;-72
2023/10/03 03:58:31;;;;;;;24.75;10.15;;;;;;;20.86;62.99;100861.91;5050303;27;97276;-72
2023/10/03 04:00:58;;;;;;;23.58;9.75;;;;;;;20.83;63.18;100849.56;5049652;27;98024;-72
2023/10/03 04:03:27;;;;;;;26.55;10.23;;;;;;;20.76;63.80;100842.94;5052248;27;101181;-72
2023/10/03 04:05:57;;;;;;;23.10;10.45;;;;;;;20.80;63.23;100849.81;5050225;27;99124;-72
2023/10/03 04:08:23;;;;;;;23.90;10.35;;;;;;;20.91;63.11;100846.28;5050441;27;102101;-70
2023/10/03 04:10:50;;;;;;;23.60;10.35;;;;;;;20.80;63.27;100844.44;5048317;27;96852;-72
2023/10/03 04:13:30;;;;;;;23.05;10.38;;;;;;;20.87;62.98;100845.66;5047870;27;99306;-74
2023/10/03 04:16:01;;;;;;;26.00;11.32;;;;;;;20.81;63.30;100835.38;5052139;27;97856;-74
2023/10/03 04:18:36;;;;;;;24.30;10.07;;;;;;;20.86;62.76;100840.41;5053879;27;98862;-73
2023/10/03 04:21:06;;;;;;;24.00;10.63;;;;;;;20.77;63.13;100828.53;5047160;27;96846;-74
2023/10/03 04:23:33;;;;;;;25.52;10.93;;;;;;;20.71;63.22;100829.00;5046602;27;101215;-72
2023/10/03 04:26:08;;;;;;;22.75;10.15;;;;;;;20.78;63.16;100830.25;5050845;27;97362;-71
2023/10/03 04:28:40;;;;;;;24.08;10.65;;;;;;;20.71;63.06;100814.72;5050401;27;98407;-73
2023/10/03 04:31:07;;;;;;;25.95;10.90;;;;;;;20.53;63.94;100808.94;5051565;27;96908;-70
2023/10/03 04:33:34;;;;;;;24.98;11.15;;;;;;;20.47;64.35;100812.94;5049879;27;99176;-70
2023/10/03 04:36:04;;;;;;;21.80;10.07;;;;;;;20.47;64.03;100810.25;5049717;27;98818;-70
2023/10/03 04:38:31;;;;;;;23.90;10.73;;;;;;;20.70;62.98;100813.88;5051759;27;96992;-71
2023/10/03 04:40:58;;;;;;;26.02;11.43;;;;;;;20.55;63.79;100802.47;5048613;27;96809;-71
2023/10/03 04:43:27;;;;;;;27.63;10.85;;;;;;;20.44;64.05;100804.25;5050487;27;99800;-71
2023/10/03 04:45:56;;;;;;;22.13;10.38;;;;;;;20.41;64.08;100800.00;5048634;27;101155;-71
2023/10/03 04:48:23;;;;;;;29.02;11.55;;;;;;;20.39;64.19;100793.88;5049830;27;98264;-73
2023/10/03 04:50:49;;;;;;;31.67;11.05;;;;;;;20.34;64.27;100795.19;5048804;27;96859;-72
2023/10/03 04:53:16;;;;;;;25.52;10.70;;;;;;;20.26;64.60;100788.53;5049248;27;101089;-72
2023/10/03 04:55:44;;;;;;;26.60;11.88;;;;;;;20.31;64.61;100785.50;5047755;27;102265;-71
2023/10/03 04:58:12;;;;;;;28.00;11.65;;;;;;;20.29;64.89;100782.94;5050712;27;96916;-71
2023/10/03 05:00:39;;;;;;;27.05;11.05;;;;;;;20.38;64.36;100772.53;5049449;27;97062;-70
2023/10/03 05:03:09;;;;;;;26.92;11.68;;;;;;;20.46;63.72;100772.81;5050675;27;99490;-71
2023/10/03 05:05:36;;;;;;;27.15;11.15;;;;;;;20.57;63.49;100764.78;5052651;27;100102;-71
2023/10/03 05:08:06;;;;;;;27.08;11.15;;;;;;;20.61;63.01;100769.78;5048296;27;98430;-70
2023/10/03 05:10:33;;;;;;;28.85;11.98;;;;;;;20.65;62.74;100757.00;5050315;27;97272;-71
2023/10/03 05:13:00;;;;;;;24.30;11.25;;;;;;;20.66;63.00;100756.88;5051081;27;99644;-72
2023/10/03 05:15:27;;;;;;;27.67;11.10;;;;;;;20.83;61.91;100744.81;5053026;27;98856;-71
2023/10/03 05:17:54;;;;;;;27.55;11.40;;;;;;;20.90;61.90;100743.38;5048277;27;99875;-71
2023/10/03 05:20:34;;;;;;;24.67;11.45;;;;;;;20.97;61.46;100741.91;5045366;27;97192;-72
2023/10/03 05:23:01;;;;;;;26.20;10.40;;;;;;;21.01;61.08;100738.00;5045473;27;102172;-70
2023/10/03 05:25:28;;;;;;;24.33;10.77;;;;;;;21.15;60.76;100727.97;5051909;27;98805;-71
2023/10/03 05:27:54;;;;;;;27.60;12.00;;;;;;;21.22;60.69;100726.56;5047358;27;98333;-71
2023/10/03 05:30:23;;;;;;;26.33;11.23;;;;;;;21.23;60.24;100723.75;5051543;27;96759;-72
2023/10/03 05:32:49;;;;;;;24.95;11.57;;;;;;;21.17;60.51;100710.81;5043588;27;98951;-70
2023/10/03 05:35:16;;;;;;;27.23;10.85;;;;;;;21.26;60.23;100703.84;5048666;27;98720;-70
2023/10/03 05:37:44;;;;;;;28.17;12.38;;;;;;;21.24;60.16;100693.22;5049284;27;96886;-70
2023/10/03 05:40:12;;;;;;;29.00;10.93;;;;;;;21.32;60.13;100692.59;5050514;27;97215;-70
2023/10/03 05:42:41;;;;;;;29.70;11.70;;;;;;;21.37;59.66;100688.56;5048898;27;99211;-70
2023/10/03 05:45:10;;;;;;;27.27;11.43;;;;;;;21.43;59.55;100692.56;5050072;27;99168;-68
2023/10/03 05:47:37;;;;;;;28.08;11.63;;;;;;;21.52;59.19;100691.84;5050848;27;97355;-70
2023/10/03 05:50:03;;;;;;;29.25;11.35;;;;;;;21.50;59.26;100687.56;5048265;27;96997;-71
2023/10/03 05:52:31;;;;;;;23.42;10.63;;;;;;;21.42;59.16;100678.28;5048159;27;97446;-70
2023/10/03 05:54:59;;;;;;;28.63;13.15;;;;;;;21.56;58.96;100679.84;5048462;27;100884;-69
2023/10/03 05:57:26;;;;;;;27.45;11.52;;;;;;;21.56;58.81;100682.53;5044138;27;97973;-69
2023/10/03 05:59:52;;;;;;;29.10;11.95;;;;;;;21.50;59.01;100680.34;5042866;27;97243;-72
2023/10/03 06:02:19;;;;;;;26.27;11.27;;;;;;;21.38;59.33;100684.91;5050665;27;100767;-74
2023/10/03 06:04:46;;;;;;;28.90;11.40;;;;;;;21.45;58.70;100685.25;5050390;27;99313;-78
2023/10/03 06:07:13;;;;;;;32.28;12.40;;;;;;;21.42;59.23;100688.16;5050971;27;100174;-77
2023/10/03 06:09:39;;;;;;;30.98;12.38;;;;;;;21.37;59.47;100687.69;5051870;27;96773;-77
2023/10/03 06:12:09;;;;;;;29.80;12.50;;;;;;;21.37;59.34;100669.75;5048039;27;99000;-76
2023/10/03 06:14:36;;;;;;;24.77;11.82;;;;;;;21.33;59.54;100659.38;5049184;27;99083;-78
2023/10/03 06:17:04;;;;;;;31.33;11.75;;;;;;;21.46;59.38;100660.91;5042327;27;98434;-75
2023/10/03 06:19:31;;;;;;;28.90;12.40;;;;;;;21.59;58.69;100652.72;5044774;27;97092;-78
2023/10/03 06:21:57;;;;;;;28.13;12.10;;;;;;;21.46;59.05;100647.47;5047093;27;98905;-76
2023/10/03 06:24:26;;;;;;;30.40;12.35;;;;;;;21.52;59.17;100654.19;5044130;27;98744;-77
2023/10/03 06:26:52;;;;;;;28.85;11.52;;;;;;;21.36;59.80;100651.91;5044897;27;97479;-76
2023/10/03 06:29:20;;;;;;;29.08;12.07;;;;;;;21.56;59.28;100649.41;5041747;27;97290;-77
2023/10/03 06:31:47;;;;;;;30.27;12.25;;;;;;;21.69;58.67;100655.47;5046009;27;99232;-77
2023/10/03 06:34:16;;;;;;;29.65;12.18;;;;;;;21.60;58.62;100646.31;5042371;27;101125;-78
2023/10/03 06:36:43;;;;;;;25.58;11.25;;;;;;;21.64;58.70;100652.31;5045903;27;97598;-78
2023/10/03 06:39:10;;;;;;;29.67;11.90;;;;;;;21.97;58.03;100668.38;5042499;27;97352;-77
2023/10/03 06:41:38;;;;;;;30.40;12.38;;;;;;;21.76;58.09;100664.75;5044980;27;101704;-77
2023/10/03 06:44:04;;;;;;;29.42;12.43;;;;;;;22.01;57.68;100666.25;5047547;27;103065;-76
2023/10/03 06:46:34;;;;;;;31.08;12.23;;;;;;;21.91;57.71;100660.78;5047769;27;97605;-76
2023/10/03 06:49:01;;;;;;;28.35;13.13;;;;;;;22.04;57.23;100671.41;5052699;27;96875;-77
2023/10/03 06:51:27;;;;;;;33.03;13.10;;;;;;;21.94;57.66;100659.66;5048883;27;99387;-77
2023/10/03 06:53:54;;;;;;;30.80;12.38;;;;;;;22.28;57.06;100658.53;5046025;27;98362;-76
2023/10/03 06:56:20;;;;;;;29.73;12.32;;;;;;;22.35;56.63;100646.25;5045191;27;97852;-76
2023/10/03 06:58:47;;;;;;;34.38;13.50;;;;;;;22.46;56.42;100651.56;5051071;27;96929;-77
2023/10/03 07:01:13;;;;;;;29.35;11.98;;;;;;;22.43;56.57;100651.00;5050103;27;98901;-75
2023/10/03 07:03:42;;;;;;;29.05;12.52;;;;;;;22.53;56.28;100636.59;5049092;27;97702;-76
2023/10/03 07:06:08;;;;;;;31.48;12.95;;;;;;;22.70;55.72;100621.66;5048245;27;96855;-76
2023/10/03 07:08:35;;;;;;;36.60;13.32;;;;;;;22.80;55.40;100610.94;5049956;27;97123;-76
2023/10/03 07:11:02;;;;;;;34.05;13.75;;;;;;;22.80;55.30;100610.94;5050852;27;100695;-76
2023/10/03 07:13:29;;;;;;;29.92;13.20;;;;;;;22.91;54.94;100621.59;5048746;27;98845;-76
2023/10/03 07:15:57;;;;;;;32.00;13.70;;;;;;;23.03;54.80;100631.31;5051907;27;96898;-74
2023/10/03 07:18:24;;;;;;;34.05;13.20;;;;;;;23.07;54.56;100616.56;5049231;27;96975;-75
2023/10/03 07:20:51;;;;;;;27.70;12.40;;;;;;;23.04;54.50;100635.69;5049292;27;97846;-76
2023/10/03 07:23:19;;;;;;;29.15;12.95;;;;;;;23.19;54.30;100623.56;5041912;27;98981;-76
2023/10/03 07:25:46;;;;;;;29.77;13.40;;;;;;;23.23;54.30;100630.38;5049764;27;98736;-77
2023/10/03 07:28:14;;;;;;;31.08;13.40;;;;;;;23.45;53.71;100623.88;5045652;27;97432;-75
2023/10/03 07:30:41;;;;;;;33.85;13.57;;;;;;;23.66;52.75;100615.72;5051165;27;98987;-76
2023/10/03 07:33:08;;;;;;;33.50;13.00;;;;;;;23.51;53.16;100617.09;5050093;27;99446;-76
2023/10/03 07:35:37;;;;;;;31.30;13.82;;;;;;;23.63;53.21;100607.91;5048197;27;98493;-77
2023/10/03 07:38:05;;;;;;;34.55;13.88;;;;;;;23.74;52.54;100615.88;5041260;27;97914;-76
2023/10/03 07:40:31;;;;;;;33.67;14.02;;;;;;;23.78;53.14;100615.44;5035660;27;99403;-77
2023/10/03 07:42:59;;;;;;;33.95;13.88;;;;;;;23.86;52.65;100600.38;5042265;27;98933;-77
2023/10/03 07:45:25;;;;;;;41.65;14.88;;;;;;;24.02;52.66;100612.31;5052733;27;98912;-77
2023/10/03 07:47:52;;;;;;;33.20;14.75;;;;;;;24.16;52.13;100617.22;5051884;27;97650;-76
2023/10/03 07:50:19;;;;;;;38.15;15.00;;;;;;;24.15;52.05;100620.09;5051595;27;99193;-76
2023/10/03 07:52:48;;;;;;;33.42;13.90;;;;;;;24.30;51.85;100612.41;5051159;27;97740;-76
2023/10/03 07:55:16;;;;;;;36.60;14.93;;;;;;;24.39;51.26;100615.09;5052097;27;96736;-76
2023/10/03 07:57:43;;;;;;;40.67;15.77;;;;;;;24.49;51.11;100612.34;5053224;27;96831;-76
2023/10/03 08:00:20;;;;;;;34.97;15.77;;;;;;;24.46;51.16;100594.63;5048363;27;99336;-75
2023/10/03 08:02:49;;;;;;;37.33;14.73;;;;;;;24.64;50.52;100586.59;5044874;27;99158;-76
2023/10/03 08:05:16;;;;;;;35.38;15.07;;;;;;;24.78;49.95;100599.59;5046883;27;98953;-76
2023/10/03 08:07:47;;;;;;;33.78;14.98;;;;;;;24.90;49.74;100595.75;5046445;27;96772;-77
2023/10/03 08:10:16;;;;;;;36.10;15.93;;;;;;;25.41;48.33;100597.84;5044024;27;98945;-76
2023/10/03 08:12:42;;;;;;;33.67;15.70;;;;;;;25.70;47.25;100592.25;5050888;27;99613;-77
2023/10/03 08:15:16;;;;;;;36.83;15.00;;;;;;;26.06;46.90;100586.78;5046937;27;97006;-75
2023/10/03 08:17:45;;;;;;;33.33;14.70;;;;;;;26.40;45.77;100592.28;5047793;27;97285;-75
2023/10/03 08:20:14;;;;;;;36.58;15.40;;;;;;;26.41;45.03;100581.31;5048575;27;102617;-73
2023/10/03 08:22:41;;;;;;;37.10;16.08;;;;;;;26.40;45.12;100573.31;5046273;27;97580;-73
2023/10/03 08:25:09;;;;;;;35.08;15.70;;;;;;;26.18;45.81;100577.41;5046851;27;98496;-73
2023/10/03 08:27:36;;;;;;;42.00;16.30;;;;;;;25.95;45.92;100566.22;5046340;27;96967;-73
2023/10/03 08:30:04;;;;;;;40.08;16.35;;;;;;;25.95;46.15;100566.22;5049843;27;97798;-74
2023/10/03 08:32:31;;;;;;;34.83;15.18;;;;;;;25.96;45.92;100556.25;5046117;27;101430;-74
2023/10/03 08:34:58;;;;;;;34.55;14.85;;;;;;;26.08;45.48;100563.97;5048817;27;97250;-74
2023/10/03 08:37:25;;;;;;;33.00;14.30;;;;;;;25.87;46.10;100573.44;5049270;27;97756;-73
2023/10/03 08:39:52;;;;;;;42.80;15.80;;;;;;;25.80;46.79;100565.09;5047708;27;99034;-74
2023/10/03 08:42:34;;;;;;;33.25;15.10;;;;;;;26.09;46.25;100564.81;5041925;27;99601;-74
2023/10/03 08:45:16;;;;;;;37.58;15.93;;;;;;;26.21;45.44;100558.13;5047820;27;97346;-74
2023/10/03 08:47:47;;;;;;;35.58;15.23;;;;;;;26.19;45.51;100550.16;5040772;27;97487;-74
2023/10/03 08:50:33;;;;;;;32.92;14.93;;;;;;;26.25;45.83;100543.31;5047264;27;99274;-74
2023/10/03 08:53:12;;;;;;;33.10;15.10;;;;;;;26.20;45.46;100548.28;5044658;27;100653;-74
2023/10/03 08:55:43;;;;;;;39.65;15.18;;;;;;;26.14;45.84;100543.50;5052813;27;97445;-73
2023/10/03 08:58:13;;;;;;;34.38;14.65;;;;;;;25.99;46.25;100534.28;5041722;27;97318;-75
2023/10/03 09:00:44;;;;;;;33.60;14.40;;;;;;;25.98;46.20;100529.88;5045453;27;102720;-73
2023/10/03 09:03:13;;;;;;;33.13;14.50;;;;;;;25.65;47.08;100535.06;5046771;27;99173;-74
2023/10/03 09:05:41;;;;;;;31.90;14.25;;;;;;;25.79;46.94;100537.19;5050231;27;97003;-74
2023/10/03 09:08:08;;;;;;;32.95;14.75;;;;;;;25.96;46.89;100529.19;5043727;27;97732;-73
2023/10/03 09:10:42;;;;;;;33.13;14.00;;;;;;;25.85;47.32;100524.03;5046518;27;99682;-74
2023/10/03 09:13:16;;;;;;;36.90;14.48;;;;;;;26.07;46.35;100526.19;5047494;27;98801;-73
2023/10/03 09:15:45;;;;;;;32.00;14.23;;;;;;;25.88;46.94;100548.91;5046585;27;98321;-74
2023/10/03 09:18:21;;;;;;;33.28;14.32;;;;;;;25.97;46.97;100539.84;5046016;27;97007;-75
2023/10/03 09:20:49;;;;;;;;;;;;;;;26.15;46.57;100547.94;5045661;27;98870;-74
2023/10/03 09:23:17;;;;;;;33.85;14.45;;;;;;;25.95;47.11;100551.84;5038828;27;99518;-74
2023/10/03 09:25:52;;;;;;;36.08;14.95;;;;;;;26.18;46.57;100550.31;5046512;27;98592;-73
2023/10/03 09:28:19;;;;;;;34.53;15.85;;;;;;;26.33;46.39;100545.19;5043815;27;97132;-73
2023/10/03 09:30:47;;;;;;;33.38;14.63;;;;;;;26.22;46.63;100545.44;5049199;27;101753;-73
2023/10/03 09:33:16;;;;;;;32.53;13.80;;;;;;;26.43;46.23;100548.66;5043101;27;99202;-74
2023/10/03 09:35:57;;;;;;;34.15;15.18;;;;;;;26.36;46.40;100534.91;5036742;27;98152;-74
2023/10/03 09:38:42;;;;;;;35.03;14.73;;;;;;;26.54;46.32;100538.38;5047812;27;98788;-73
2023/10/03 09:41:09;;;;;;;32.05;14.70;;;;;;;26.54;45.84;100535.66;5040609;27;98912;-74
2023/10/03 09:43:36;;;;;;;34.00;14.88;;;;;;;26.71;46.01;100530.31;5047681;27;101644;-74
2023/10/03 09:46:04;;;;;;;31.88;14.15;;;;;;;26.65;46.16;100542.63;5048513;27;97862;-72
2023/10/03 09:48:32;;;;;;;33.60;15.20;;;;;;;26.78;46.05;100540.31;5047787;27;97352;-72
2023/10/03 09:51:05;;;;;;;31.90;14.73;;;;;;;26.62;46.24;100528.56;5047430;27;99009;-71
2023/10/03 09:53:32;;;;;;;35.08;14.75;;;;;;;26.68;46.30;100536.06;5047371;27;98773;-70
2023/10/03 09:56:08;;;;;;;33.20;14.63;;;;;;;26.61;46.10;100527.72;5044935;27;98747;-71
2023/10/03 09:58:34;;;;;;;34.83;14.00;;;;;;;26.69;46.13;100524.22;5043588;27;96843;-71
2023/10/03 10:01:01;;;;;;;26.80;14.05;;;;;;;26.92;45.56;100509.91;5038648;27;99222;-71
2023/10/03 10:03:33;;;;;;;32.55;13.88;;;;;;;26.98;45.63;100516.53;5040595;27;98281;-71
2023/10/03 10:06:13;;;;;;;32.97;13.98;;;;;;;27.23;44.70;100531.88;5040354;27;97126;-70
2023/10/03 10:08:48;;;;;;;35.17;14.13;;;;;;;27.01;45.30;100528.91;5045116;27;97090;-70
2023/10/03 10:11:15;;;;;;;32.53;14.07;;;;;;;27.41;44.75;100531.72;5042990;27;99063;-71
2023/10/03 10:14:08;;;;;;;27.02;13.15;;;;;;;27.33;44.87;100545.25;5048342;27;98824;-72
2023/10/03 10:16:35;;;;;;;33.53;13.73;;;;;;;27.47;44.61;100528.31;5049706;27;97097;-71
2023/10/03 10:19:04;;;;;;;28.92;13.45;;;;;;;27.42;44.59;100533.41;5050425;27;97098;-71
2023/10/03 10:21:32;;;;;;;32.90;14.75;;;;;;;27.59;43.96;100528.88;5046113;27;99084;-71
2023/10/03 10:24:20;;;;;;;29.45;13.95;;;;;;;27.77;43.69;100527.66;5046219;27;98764;-71
2023/10/03 10:26:48;;;;;;;29.83;13.95;;;;;;;27.92;43.36;100519.69;5040415;27;99457;-71
2023/10/03 10:29:19;;;;;;;29.17;13.50;;;;;;;28.27;43.22;100504.03;5050338;27;96994;-71
2023/10/03 10:31:57;;;;;;;28.33;13.23;;;;;;;28.30;42.40;100506.38;5048493;27;97725;-72
2023/10/03 10:34:46;;;;;;;29.00;14.05;;;;;;;28.37;42.19;100518.25;5047895;27;100865;-71
2023/10/03 10:37:17;;;;;;;26.35;13.25;;;;;;;28.30;42.16;100506.38;5044645;27;96863;-72
2023/10/03 10:40:10;;;;;;;35.03;13.73;;;;;;;28.44;42.06;100519.25;5044548;27;97172;-71
2023/10/03 10:42:59;;;;;;;29.15;12.75;;;;;;;28.55;41.34;100516.19;5045912;27;99473;-71
2023/10/03 10:45:26;;;;;;;29.25;13.73;;;;;;;28.69;41.21;100517.28;5045430;27;97510;-71
2023/10/03 10:47:55;;;;;;;26.70;12.05;;;;;;;28.35;41.42;100514.88;5042585;27;98516;-70
2023/10/03 10:50:25;;;;;;;26.42;11.93;;;;;;;28.25;40.97;100517.78;5044419;27;97438;-70
2023/10/03 10:52:55;;;;;;;24.70;11.43;;;;;;;27.92;41.38;100524.28;5042192;27;98998;-70
2023/10/03 10:55:22;;;;;;;30.02;11.52;;;;;;;28.08;40.67;100525.13;5045693;27;99502;-71
2023/10/03 10:58:01;;;;;;;25.85;11.80;;;;;;;27.89;40.81;100511.91;5043449;27;97402;-71
2023/10/03 11:00:28;;;;;;;23.50;11.38;;;;;;;27.91;40.38;100514.41;5045474;27;96961;-71
2023/10/03 11:02:54;;;;;;;23.95;10.68;;;;;;;27.98;40.23;100524.44;5048803;27;99866;-71
2023/10/03 11:05:24;;;;;;;27.10;11.13;;;;;;;27.85;40.32;100526.81;5044246;27;98551;-70
2023/10/03 11:07:50;;;;;;;24.75;11.77;;;;;;;27.99;40.26;100528.84;5046581;27;96763;-72
2023/10/03 11:10:17;;;;;;;23.10;11.30;;;;;;;28.43;40.02;100523.00;5040540;27;97102;-71
2023/10/03 11:12:44;;;;;;;24.88;12.30;;;;;;;28.19;39.73;100528.50;5048003;27;98882;-71
2023/10/03 11:15:15;;;;;;;29.83;12.00;;;;;;;27.72;40.69;100519.19;5047661;27;99426;-70
2023/10/03 11:17:49;;;;;;;22.90;10.85;;;;;;;27.74;40.53;100528.03;5052904;27;97429;-71
2023/10/03 11:20:16;;;;;;;24.30;10.57;;;;;;;27.67;40.93;100534.31;5049006;27;97219;-70